Time;durP1;ratioP1;P1;durP2;ratioP2;P2;SDS_P1;SDS_P2;PMS_P1;PMS_P2;Temp;Humidity;BMP_temperature;BMP_pressure;BME280_temperature;BME280_humidity;BME280_pressure;Samples;Min_cycle;Max_cycle;Signal;HPM_P1;HPM_P2
2021/07/03 00:02:20;;;;;;;5.13;3.90;;;19.80;71.60;;;;;;5094208;28;20044;-71
2021/07/03 00:04:46;;;;;;;6.22;4.28;;;19.80;72.20;;;;;;5095470;28;20201;-70
2021/07/03 00:07:11;;;;;;;6.07;4.07;;;19.80;71.60;;;;;;5095050;28;20055;-71
2021/07/03 00:09:38;;;;;;;4.70;3.42;;;19.80;71.60;;;;;;5095348;28;20447;-71
2021/07/03 00:12:06;;;;;;;7.00;4.30;;;19.80;71.50;;;;;;5095150;28;20074;-71
2021/07/03 00:14:33;;;;;;;6.80;4.20;;;19.80;71.50;;;;;;5094942;28;20040;-71
2021/07/03 00:16:59;;;;;;;6.00;3.97;;;19.80;71.50;;;;;;5095144;28;20051;-71
2021/07/03 00:19:25;;;;;;;4.63;4.07;;;19.70;71.50;;;;;;5095133;28;20072;-70
2021/07/03 00:21:51;;;;;;;5.93;4.00;;;19.70;71.50;;;;;;5090472;28;20072;-71
2021/07/03 00:24:17;;;;;;;4.72;3.70;;;19.80;71.60;;;;;;5075529;28;20045;-71
2021/07/03 00:26:43;;;;;;;5.95;3.70;;;19.70;71.60;;;;;;5074572;28;20048;-71
2021/07/03 00:29:09;;;;;;;6.03;3.63;;;19.70;71.70;;;;;;5074690;28;20136;-71
2021/07/03 00:31:35;;;;;;;6.05;3.88;;;19.70;71.60;;;;;;5074684;28;20111;-71
2021/07/03 00:34:02;;;;;;;4.20;3.63;;;19.70;71.50;;;;;;5074694;28;20360;-71
2021/07/03 00:36:28;;;;;;;5.70;3.90;;;19.70;71.50;;;;;;5074831;28;20059;-71
2021/07/03 00:38:54;;;;;;;5.95;3.63;;;19.70;71.40;;;;;;5074832;28;20052;-71
2021/07/03 00:41:20;;;;;;;5.63;3.53;;;19.70;71.40;;;;;;5074163;28;20467;-71
2021/07/03 00:43:46;;;;;;;6.78;4.05;;;19.70;71.40;;;;;;5074744;28;20044;-71
2021/07/03 00:46:13;;;;;;;4.40;3.63;;;19.70;71.40;;;;;;5075154;28;20040;-71
2021/07/03 00:48:39;;;;;;;4.75;3.42;;;19.70;71.40;;;;;;5074194;28;20127;-71
2021/07/03 00:51:05;;;;;;;5.97;3.90;;;19.70;71.20;;;;;;5074775;28;20037;-71
2021/07/03 00:53:31;;;;;;;6.32;3.63;;;19.70;71.30;;;;;;5074007;28;20094;-71
2021/07/03 00:55:58;;;;;;;4.97;3.95;;;19.70;71.20;;;;;;5077857;28;20436;-72
2021/07/03 00:58:24;;;;;;;5.07;3.80;;;19.70;71.20;;;;;;5078186;28;20041;-71
2021/07/03 01:00:50;;;;;;;5.18;3.53;;;19.60;71.20;;;;;;5091586;28;20359;-72
2021/07/03 01:03:19;;;;;;;4.93;3.20;;;19.60;71.10;;;;;;5078076;28;20048;-72
2021/07/03 01:05:47;;;;;;;5.90;3.30;;;19.60;71.20;;;;;;5095507;28;20040;-71
2021/07/03 01:08:13;;;;;;;6.78;3.50;;;19.60;71.20;;;;;;5098246;28;20048;-72
2021/07/03 01:10:39;;;;;;;5.40;3.30;;;19.60;71.10;;;;;;5097985;28;20055;-71
2021/07/03 01:13:05;;;;;;;4.75;3.55;;;19.60;71.10;;;;;;5097919;28;20051;-71
2021/07/03 01:15:31;;;;;;;4.22;3.28;;;19.60;71.10;;;;;;5098248;28;20040;-70
2021/07/03 01:17:57;;;;;;;4.13;3.00;;;19.60;71.00;;;;;;5097965;28;20115;-72
2021/07/03 01:20:23;;;;;;;5.78;3.53;;;19.60;71.00;;;;;;5091535;28;20028;-71
2021/07/03 01:22:49;;;;;;;4.38;3.30;;;19.60;71.00;;;;;;5097735;28;20448;-71
2021/07/03 01:25:16;;;;;;;4.22;3.40;;;19.60;70.90;;;;;;5097708;28;20040;-70
2021/07/03 01:27:42;;;;;;;5.13;3.38;;;19.60;71.00;;;;;;5098039;28;20040;-71
2021/07/03 01:30:11;;;;;;;7.57;3.45;;;19.50;71.00;;;;;;5096844;28;20052;-71
2021/07/03 01:32:37;;;;;;;3.35;3.05;;;19.60;71.10;;;;;;5097684;28;20435;-72
2021/07/03 01:35:04;;;;;;;4.88;2.90;;;19.50;71.00;;;;;;5098050;28;20493;-71
2021/07/03 01:37:30;;;;;;;3.00;2.45;;;19.50;71.00;;;;;;5097609;28;20568;-70
2021/07/03 01:39:56;;;;;;;4.10;2.92;;;19.50;71.00;;;;;;5096104;28;20068;-71
2021/07/03 01:42:22;;;;;;;5.32;3.00;;;19.50;70.90;;;;;;5097853;28;20052;-71
2021/07/03 01:44:49;;;;;;;4.25;2.67;;;19.50;70.90;;;;;;5096516;28;20097;-70
2021/07/03 01:47:15;;;;;;;3.75;2.50;;;19.50;70.80;;;;;;5097590;28;20051;-70
2021/07/03 01:49:45;;;;;;;3.55;3.10;;;19.50;70.80;;;;;;5097639;28;20048;-71
2021/07/03 01:52:15;;;;;;;5.10;2.63;;;19.50;70.70;;;;;;5097913;28;20056;-71
2021/07/03 01:54:40;;;;;;;2.97;2.40;;;19.50;70.60;;;;;;5097305;28;20119;-71
2021/07/03 01:57:06;;;;;;;2.70;2.47;;;19.50;70.60;;;;;;5095666;28;20067;-70
2021/07/03 01:59:33;;;;;;;2.63;2.42;;;19.50;70.60;;;;;;5097253;28;20063;-70
2021/07/03 02:02:02;;;;;;;3.50;2.20;;;19.40;70.50;;;;;;5097602;28;20047;-70
2021/07/03 02:04:29;;;;;;;2.42;2.22;;;19.40;70.30;;;;;;5097278;28;20051;-72
2021/07/03 02:06:55;;;;;;;3.13;2.05;;;19.40;70.50;;;;;;5097892;28;20047;-70
2021/07/03 02:09:21;;;;;;;2.63;2.20;;;19.40;70.50;;;;;;5096809;28;20081;-71
2021/07/03 02:11:47;;;;;;;2.72;2.05;;;19.40;70.50;;;;;;5089339;28;20361;-71
2021/07/03 02:14:14;;;;;;;2.85;2.15;;;19.40;70.50;;;;;;5077076;28;20051;-71
2021/07/03 02:16:41;;;;;;;2.70;2.05;;;19.40;70.50;;;;;;5077425;28;20079;-70
2021/07/03 02:19:07;;;;;;;2.75;1.90;;;19.40;70.50;;;;;;5076786;28;20044;-71
2021/07/03 02:21:34;;;;;;;3.00;1.77;;;19.40;70.40;;;;;;5076513;28;20124;-70
2021/07/03 02:24:02;;;;;;;2.42;2.08;;;19.40;70.40;;;;;;5076629;28;20049;-70
2021/07/03 02:26:28;;;;;;;1.95;1.70;;;19.40;70.20;;;;;;5076405;28;20371;-71
2021/07/03 02:28:55;;;;;;;4.95;1.85;;;19.40;70.20;;;;;;5076640;28;20059;-72
2021/07/03 02:31:20;;;;;;;2.22;1.55;;;19.40;70.20;;;;;;5077992;28;20127;-71
2021/07/03 02:33:47;;;;;;;2.78;1.60;;;19.30;70.20;;;;;;5096346;28;20087;-71
2021/07/03 02:36:13;;;;;;;2.60;2.00;;;19.40;70.30;;;;;;5076389;28;20040;-70
2021/07/03 02:38:40;;;;;;;3.40;1.90;;;19.40;70.40;;;;;;5076576;28;20123;-70
2021/07/03 02:41:06;;;;;;;1.40;1.20;;;19.30;70.90;;;;;;5076807;28;20440;-71
2021/07/03 02:43:32;;;;;;;1.95;1.38;;;19.30;70.30;;;;;;5076225;28;20040;-71
2021/07/03 02:45:58;;;;;;;1.90;1.52;;;19.30;70.20;;;;;;5076032;28;20456;-71
2021/07/03 02:48:23;;;;;;;1.63;1.25;;;19.30;70.10;;;;;;5076740;28;20063;-71
2021/07/03 02:50:49;;;;;;;1.63;1.23;;;19.30;70.10;;;;;;5075812;28;20120;-72
2021/07/03 02:53:15;;;;;;;2.17;1.10;;;19.30;70.10;;;;;;5075850;28;20118;-71
2021/07/03 02:55:41;;;;;;;1.50;1.08;;;19.30;70.10;;;;;;5080403;28;20036;-71
2021/07/03 02:58:07;;;;;;;2.53;1.63;;;19.30;70.10;;;;;;5096023;28;20043;-72
2021/07/03 03:00:33;;;;;;;1.55;1.20;;;19.20;70.00;;;;;;5112674;28;20126;-71
2021/07/03 03:02:59;;;;;;;1.30;0.90;;;19.20;70.00;;;;;;5096063;28;20105;-71
2021/07/03 03:05:25;;;;;;;1.10;1.00;;;19.20;70.00;;;;;;5095948;28;20056;-70
2021/07/03 03:07:51;;;;;;;1.50;1.10;;;19.20;70.00;;;;;;5082322;28;20041;-70
2021/07/03 03:10:18;;;;;;;1.38;0.90;;;19.20;69.90;;;;;;5075628;28;20047;-71
2021/07/03 03:12:45;;;;;;;1.17;0.88;;;19.20;69.90;;;;;;5075398;28;20060;-71
2021/07/03 03:15:13;;;;;;;1.83;1.15;;;19.20;69.90;;;;;;5075811;28;20052;-72
2021/07/03 03:17:39;;;;;;;1.60;1.10;;;19.20;69.80;;;;;;5076285;28;20049;-71
2021/07/03 03:20:08;;;;;;;1.65;0.90;;;19.20;69.80;;;;;;5075861;28;20044;-71
2021/07/03 03:22:34;;;;;;;1.20;1.02;;;19.20;69.70;;;;;;5075386;28;20059;-71
2021/07/03 03:24:59;;;;;;;0.82;0.50;;;19.20;69.70;;;;;;5075878;28;20048;-71
2021/07/03 03:27:25;;;;;;;1.83;1.17;;;19.20;69.80;;;;;;5075642;28;20041;-71
2021/07/03 03:29:51;;;;;;;1.85;0.70;;;19.20;69.80;;;;;;5075560;28;20060;-71
2021/07/03 03:32:18;;;;;;;1.02;0.70;;;19.20;69.70;;;;;;5076124;28;20048;-72
2021/07/03 03:34:44;;;;;;;0.85;0.57;;;19.20;69.80;;;;;;5095127;28;20478;-71
2021/07/03 03:37:09;;;;;;;1.05;0.70;;;19.10;69.70;;;;;;5095937;28;20056;-71
2021/07/03 03:39:36;;;;;;;1.23;0.75;;;19.20;69.70;;;;;;5095962;28;20141;-71
2021/07/03 03:42:04;;;;;;;1.15;0.60;;;19.10;69.60;;;;;;5095526;28;20040;-73
2021/07/03 03:44:30;;;;;;;1.48;0.77;;;19.10;69.50;;;;;;5094928;28;20066;-74
2021/07/03 03:46:56;;;;;;;0.55;0.40;;;19.10;69.50;;;;;;5095539;28;20048;-73
2021/07/03 03:49:22;;;;;;;1.80;0.60;;;19.10;69.50;;;;;;5078256;28;20062;-73
2021/07/03 03:51:49;;;;;;;1.05;0.70;;;19.10;69.50;;;;;;5074791;28;20457;-74
2021/07/03 03:54:15;;;;;;;2.30;0.70;;;19.10;69.50;;;;;;5075359;28;20387;-74
2021/07/03 03:56:42;;;;;;;1.00;0.60;;;19.10;69.50;;;;;;5075204;28;20515;-73
2021/07/03 03:59:10;;;;;;;3.15;0.70;;;19.10;69.50;;;;;;5075090;28;20044;-74
2021/07/03 04:01:36;;;;;;;0.90;0.50;;;19.10;69.50;;;;;;5080739;28;20048;-73
2021/07/03 04:04:02;;;;;;;1.30;0.50;;;19.10;69.50;;;;;;5094999;28;20355;-73
2021/07/03 04:06:28;;;;;;;0.82;0.60;;;19.10;69.50;;;;;;5095645;28;20445;-74
2021/07/03 04:08:54;;;;;;;2.22;0.50;;;19.10;69.50;;;;;;5095820;28;20054;-73
2021/07/03 04:11:20;;;;;;;1.13;0.50;;;19.10;69.50;;;;;;5093665;28;20450;-74
2021/07/03 04:13:46;;;;;;;2.40;0.93;;;19.00;69.40;;;;;;5075114;28;20146;-73
2021/07/03 04:16:12;;;;;;;1.25;0.57;;;19.00;69.40;;;;;;5075294;28;20451;-73
2021/07/03 04:18:37;;;;;;;1.00;0.65;;;19.10;69.50;;;;;;5075743;28;20044;-73
2021/07/03 04:21:03;;;;;;;1.05;0.68;;;19.10;69.60;;;;;;5076018;28;20177;-73
2021/07/03 04:23:29;;;;;;;2.17;0.60;;;19.10;69.60;;;;;;5074934;28;20115;-74
2021/07/03 04:25:55;;;;;;;1.02;0.65;;;19.10;69.60;;;;;;5074929;28;20045;-73
2021/07/03 04:28:21;;;;;;;1.02;0.80;;;19.10;69.70;;;;;;5074994;28;20056;-74
2021/07/03 04:30:47;;;;;;;1.77;1.05;;;19.10;69.70;;;;;;5078342;28;20504;-74
2021/07/03 04:33:12;;;;;;;1.10;0.90;;;19.00;69.70;;;;;;5078495;28;20049;-73
2021/07/03 04:35:38;;;;;;;2.42;1.17;;;19.00;69.80;;;;;;5096329;28;20450;-74
2021/07/03 04:38:04;;;;;;;3.40;1.20;;;19.00;69.70;;;;;;5099368;28;20044;-73
2021/07/03 04:40:31;;;;;;;1.83;1.02;;;19.00;69.80;;;;;;5099549;28;20071;-75
2021/07/03 04:42:57;;;;;;;1.80;1.05;;;19.10;70.10;;;;;;5098822;28;20072;-72
2021/07/03 04:45:23;;;;;;;5.85;0.95;;;19.00;70.30;;;;;;5097339;28;20449;-76
2021/07/03 04:47:49;;;;;;;2.67;0.85;;;19.00;70.50;;;;;;5098614;28;20051;-74
2021/07/03 04:50:15;;;;;;;3.15;0.85;;;19.10;70.70;;;;;;5098922;28;20048;-75
2021/07/03 04:52:41;;;;;;;2.38;0.93;;;19.10;70.70;;;;;;5098606;28;20048;-74
2021/07/03 04:55:08;;;;;;;3.78;1.05;;;19.10;70.80;;;;;;5086522;28;20127;-73
2021/07/03 04:57:34;;;;;;;5.32;1.55;;;19.10;70.80;;;;;;5078251;28;20155;-72
2021/07/03 05:00:00;;;;;;;3.85;1.13;;;19.10;71.00;;;;;;5078117;28;20127;-72
2021/07/03 05:02:26;;;;;;;5.43;1.20;;;19.10;71.00;;;;;;5077901;28;20056;-76
2021/07/03 05:04:51;;;;;;;3.03;1.38;;;19.10;71.10;;;;;;5078718;28;20048;-72
2021/07/03 05:07:18;;;;;;;2.38;1.17;;;19.20;71.20;;;;;;5078337;28;20051;-73
2021/07/03 05:09:43;;;;;;;5.15;1.75;;;19.20;71.30;;;;;;5090281;28;20122;-72
2021/07/03 05:12:09;;;;;;;3.40;1.88;;;19.20;71.30;;;;;;5097953;28;20048;-72
2021/07/03 05:14:35;;;;;;;5.22;1.90;;;19.20;71.40;;;;;;5097634;28;20044;-71
2021/07/03 05:17:02;;;;;;;4.55;2.00;;;19.20;71.30;;;;;;5098721;28;20055;-72
2021/07/03 05:19:28;;;;;;;3.63;2.05;;;19.30;71.40;;;;;;5081326;28;20342;-72
2021/07/03 05:21:54;;;;;;;2.58;1.67;;;19.30;71.40;;;;;;5077410;28;20063;-72
2021/07/03 05:24:20;;;;;;;3.50;2.10;;;19.30;71.40;;;;;;5077892;28;20483;-72
2021/07/03 05:26:45;;;;;;;4.00;1.85;;;19.30;71.40;;;;;;5077788;28;20060;-72
2021/07/03 05:29:11;;;;;;;5.15;1.67;;;19.30;71.40;;;;;;5079011;28;20149;-72
2021/07/03 05:31:37;;;;;;;3.47;1.80;;;19.40;71.40;;;;;;5077163;28;20040;-73
2021/07/03 05:34:03;;;;;;;3.20;1.48;;;19.40;71.50;;;;;;5077566;28;20060;-72
2021/07/03 05:36:29;;;;;;;3.58;2.13;;;19.40;71.40;;;;;;5077841;28;20105;-73
2021/07/03 05:38:55;;;;;;;2.15;1.70;;;19.40;71.50;;;;;;5077409;28;20071;-72
2021/07/03 05:41:22;;;;;;;5.25;2.00;;;19.40;71.50;;;;;;5077151;28;20047;-74
2021/07/03 05:43:48;;;;;;;3.70;1.85;;;19.40;71.60;;;;;;5077475;28;20117;-73
2021/07/03 05:46:14;;;;;;;3.83;1.60;;;19.40;71.50;;;;;;5097455;28;20434;-72
2021/07/03 05:48:41;;;;;;;3.97;2.35;;;19.40;71.50;;;;;;5097369;28;20052;-72
2021/07/03 05:51:08;;;;;;;5.63;1.90;;;19.50;71.60;;;;;;5097747;28;20060;-72
2021/07/03 05:53:33;;;;;;;3.97;1.92;;;19.50;71.60;;;;;;5097791;28;20040;-72
2021/07/03 05:56:00;;;;;;;3.72;1.92;;;19.50;71.60;;;;;;5097488;28;20048;-72
2021/07/03 05:58:26;;;;;;;3.83;2.10;;;19.50;71.70;;;;;;5097084;28;20050;-72
2021/07/03 06:00:52;;;;;;;2.90;1.77;;;19.50;71.70;;;;;;5097786;28;20123;-72
2021/07/03 06:03:18;;;;;;;3.53;1.75;;;19.50;71.80;;;;;;5096317;28;20119;-72
2021/07/03 06:05:44;;;;;;;2.95;1.88;;;19.50;71.80;;;;;;5081754;28;20052;-72
2021/07/03 06:08:10;;;;;;;3.85;1.90;;;19.50;71.80;;;;;;5077089;28;20115;-72
2021/07/03 06:10:35;;;;;;;3.03;1.80;;;19.50;71.80;;;;;;5076849;28;20048;-72
2021/07/03 06:13:01;;;;;;;5.75;1.90;;;19.50;71.80;;;;;;5076164;28;20479;-72
2021/07/03 06:15:28;;;;;;;6.18;2.13;;;19.50;71.80;;;;;;5076411;28;20068;-72
2021/07/03 06:17:53;;;;;;;3.78;1.75;;;19.60;71.90;;;;;;5077163;28;20432;-72
2021/07/03 06:20:19;;;;;;;3.83;1.83;;;19.50;71.90;;;;;;5076833;28;20055;-72
2021/07/03 06:22:45;;;;;;;4.32;2.22;;;19.50;71.90;;;;;;5076681;28;20475;-73
2021/07/03 06:25:12;;;;;;;2.65;1.70;;;19.60;71.90;;;;;;5076774;28;20045;-73
2021/07/03 06:27:38;;;;;;;3.05;1.95;;;19.60;71.90;;;;;;5076940;28;20052;-73
2021/07/03 06:30:09;;;;;;;2.78;1.95;;;19.50;71.90;;;;;;5095715;28;20458;-72
2021/07/03 06:32:36;;;;;;;3.20;2.20;;;19.60;71.90;;;;;;5095146;28;20044;-72
2021/07/03 06:35:03;;;;;;;3.92;1.60;;;19.60;71.90;;;;;;5096477;28;20389;-72
2021/07/03 06:37:30;;;;;;;4.13;1.77;;;19.60;72.00;;;;;;5096868;28;20047;-72
2021/07/03 06:39:55;;;;;;;3.45;2.03;;;19.60;71.90;;;;;;5086663;28;20424;-73
2021/07/03 06:42:23;;;;;;;3.55;2.20;;;19.60;71.90;;;;;;5076087;28;20139;-72
2021/07/03 06:44:50;;;;;;;4.35;2.42;;;19.60;72.00;;;;;;5075939;28;20532;-72
2021/07/03 06:47:17;;;;;;;3.20;2.00;;;19.60;72.00;;;;;;5076521;28;20052;-72
2021/07/03 06:49:43;;;;;;;3.55;2.00;;;19.70;72.10;;;;;;5076717;28;20048;-72
2021/07/03 06:52:11;;;;;;;3.90;2.35;;;19.70;72.10;;;;;;5076700;28;20051;-72
2021/07/03 06:54:39;;;;;;;3.55;2.10;;;19.70;72.00;;;;;;5076599;28;20343;-73
2021/07/03 06:57:06;;;;;;;2.75;1.83;;;19.70;72.10;;;;;;5075761;28;20049;-73
2021/07/03 06:59:32;;;;;;;3.05;2.08;;;19.70;72.10;;;;;;5075513;28;20534;-72
2021/07/03 07:01:58;;;;;;;3.42;2.35;;;19.70;72.10;;;;;;5075769;28;20049;-72
2021/07/03 07:04:25;;;;;;;2.83;1.92;;;19.70;72.10;;;;;;5075926;28;20079;-72
2021/07/03 07:06:52;;;;;;;3.55;2.25;;;19.70;72.10;;;;;;5090910;28;20048;-73
2021/07/03 07:09:18;;;;;;;4.85;2.10;;;19.80;72.20;;;;;;5095356;28;20393;-72
2021/07/03 07:11:45;;;;;;;3.50;2.10;;;19.80;72.20;;;;;;5095281;28;20126;-72
2021/07/03 07:14:12;;;;;;;2.90;2.00;;;19.80;72.10;;;;;;5095677;28;20081;-73
2021/07/03 07:16:38;;;;;;;4.28;1.98;;;19.80;72.10;;;;;;5096146;28;20054;-72
2021/07/03 07:19:04;;;;;;;3.15;2.15;;;19.80;72.10;;;;;;5095819;28;20040;-73
2021/07/03 07:21:30;;;;;;;5.15;1.92;;;19.80;72.10;;;;;;5096045;28;20074;-73
2021/07/03 07:23:56;;;;;;;4.05;2.20;;;19.80;72.10;;;;;;5096335;28;20365;-72
2021/07/03 07:26:22;;;;;;;4.28;1.90;;;19.80;72.10;;;;;;5085042;28;20051;-72
2021/07/03 07:28:49;;;;;;;2.20;2.00;;;19.80;72.20;;;;;;5075595;28;20044;-72
2021/07/03 07:31:16;;;;;;;3.20;2.00;;;19.90;72.20;;;;;;5075623;28;20102;-72
2021/07/03 07:33:43;;;;;;;2.55;2.10;;;19.90;72.80;;;;;;5075733;28;20127;-72
2021/07/03 07:36:10;;;;;;;1.98;1.83;;;19.90;72.20;;;;;;5075486;28;20048;-73
2021/07/03 07:38:36;;;;;;;3.00;1.95;;;19.90;72.30;;;;;;5074817;28;20128;-72
2021/07/03 07:41:01;;;;;;;4.05;2.60;;;19.90;72.30;;;;;;5075171;28;20119;-72
2021/07/03 07:43:28;;;;;;;4.80;2.40;;;19.90;72.30;;;;;;5075522;28;20064;-72
2021/07/03 07:45:55;;;;;;;3.00;2.00;;;19.90;72.30;;;;;;5074838;28;20440;-72
2021/07/03 07:48:22;;;;;;;3.90;2.35;;;20.00;72.40;;;;;;5090891;28;20048;-72
2021/07/03 07:50:49;;;;;;;4.03;2.78;;;20.00;72.40;;;;;;5090338;28;20048;-72
2021/07/03 07:53:15;;;;;;;4.85;2.58;;;20.00;72.40;;;;;;5095141;28;20075;-72
2021/07/03 07:55:40;;;;;;;3.15;2.15;;;20.00;72.40;;;;;;5095185;28;20138;-72
2021/07/03 07:58:06;;;;;;;3.47;2.40;;;20.00;72.40;;;;;;5095400;28;20054;-72
2021/07/03 08:00:32;;;;;;;4.15;2.45;;;20.00;72.40;;;;;;5091912;28;20048;-74
2021/07/03 08:02:58;;;;;;;3.65;2.50;;;20.00;72.40;;;;;;5094456;28;20135;-73
2021/07/03 08:05:25;;;;;;;4.28;2.42;;;20.00;73.00;;;;;;5099407;28;20470;-73
2021/07/03 08:07:52;;;;;;;4.07;2.75;;;20.10;72.40;;;;;;5099740;28;20366;-73
2021/07/03 08:10:18;;;;;;;3.97;2.20;;;20.10;72.50;;;;;;5099472;28;20052;-72
2021/07/03 08:12:44;;;;;;;3.20;2.70;;;20.10;72.50;;;;;;5097217;28;20060;-72
2021/07/03 08:15:12;;;;;;;5.53;2.63;;;20.10;72.40;;;;;;5099371;28;20409;-73
2021/07/03 08:17:43;;;;;;;4.82;2.65;;;20.10;72.40;;;;;;5099374;28;20109;-72
2021/07/03 08:20:20;;;;;;;3.83;2.25;;;20.10;72.40;;;;;;5099439;28;20032;-72
2021/07/03 08:22:48;;;;;;;3.75;2.33;;;20.10;72.40;;;;;;5099607;28;20048;-73
2021/07/03 08:25:15;;;;;;;3.47;3.17;;;20.20;72.50;;;;;;5098297;28;20078;-72
2021/07/03 08:27:41;;;;;;;5.00;2.80;;;20.10;72.50;;;;;;5089485;28;20051;-73
2021/07/03 08:30:08;;;;;;;4.43;3.53;;;20.10;72.50;;;;;;5078942;28;20044;-73
2021/07/03 08:32:34;;;;;;;4.03;2.92;;;20.10;72.50;;;;;;5078674;28;20051;-72
2021/07/03 08:35:00;;;;;;;4.72;3.05;;;20.20;72.50;;;;;;5079108;28;20063;-73
2021/07/03 08:37:26;;;;;;;3.95;2.78;;;20.20;72.50;;;;;;5078717;28;20044;-74
2021/07/03 08:39:52;;;;;;;5.32;3.40;;;20.20;72.60;;;;;;5079054;28;20049;-72
2021/07/03 08:42:17;;;;;;;5.70;3.45;;;20.20;72.60;;;;;;5078485;28;20041;-73
2021/07/03 08:44:45;;;;;;;6.18;3.50;;;20.20;72.60;;;;;;5078644;28;20083;-72
2021/07/03 08:47:12;;;;;;;4.10;3.25;;;20.20;72.60;;;;;;5091451;28;20055;-73
2021/07/03 08:49:37;;;;;;;7.35;3.55;;;20.20;72.60;;;;;;5098720;28;20050;-72
2021/07/03 08:52:03;;;;;;;4.72;3.13;;;20.20;72.60;;;;;;5098817;28;20048;-72
2021/07/03 08:54:29;;;;;;;4.70;3.03;;;20.20;72.60;;;;;;5098492;28;20516;-72
2021/07/03 08:57:00;;;;;;;4.22;3.30;;;20.20;72.60;;;;;;5098527;28;20048;-73
2021/07/03 08:59:27;;;;;;;4.20;2.80;;;20.20;72.60;;;;;;5098665;28;20482;-72
2021/07/03 09:01:57;;;;;;;5.47;3.50;;;20.30;72.70;;;;;;5079283;28;20048;-73
2021/07/03 09:04:52;;;;;;;6.13;3.80;;;20.30;72.70;;;;;;5078325;28;20056;-73
2021/07/03 09:07:19;;;;;;;7.25;3.47;;;20.30;72.70;;;;;;5073411;28;20060;-73
2021/07/03 09:09:52;;;;;;;6.32;3.25;;;20.30;72.70;;;;;;5080579;28;20048;-73
2021/07/03 09:12:48;;;;;;;6.32;3.97;;;20.30;72.70;;;;;;5097657;28;20087;-73
2021/07/03 09:15:16;;;;;;;5.97;3.95;;;20.30;72.70;;;;;;5076475;28;20067;-73
2021/07/03 09:18:00;;;;;;;5.53;4.05;;;20.30;72.70;;;;;;5078423;28;20436;-73
2021/07/03 09:20:26;;;;;;;4.65;3.88;;;20.30;72.70;;;;;;5078902;28;20048;-72
2021/07/03 09:23:02;;;;;;;5.00;3.55;;;20.30;72.70;;;;;;5078544;28;20158;-73
2021/07/03 09:25:28;;;;;;;4.93;3.63;;;20.30;72.70;;;;;;5077800;28;20049;-72
2021/07/03 09:27:55;;;;;;;6.45;4.25;;;20.30;72.70;;;;;;5077984;28;20048;-73
2021/07/03 09:30:22;;;;;;;4.82;3.50;;;20.30;72.70;;;;;;5077883;28;20048;-73
2021/07/03 09:32:52;;;;;;;6.88;4.05;;;20.30;72.70;;;;;;5097012;28;20047;-72
2021/07/03 09:35:18;;;;;;;6.65;4.20;;;20.30;72.70;;;;;;5097077;28;20048;-72
2021/07/03 09:37:44;;;;;;;5.47;3.90;;;20.30;72.70;;;;;;5097991;28;20105;-73
2021/07/03 09:40:11;;;;;;;6.82;4.05;;;20.30;72.70;;;;;;5097862;28;20068;-73
2021/07/03 09:42:38;;;;;;;7.75;3.97;;;20.40;72.80;;;;;;5097951;28;20047;-73
2021/07/03 09:45:06;;;;;;;5.57;3.85;;;20.40;72.80;;;;;;5083669;28;20123;-73
2021/07/03 09:47:34;;;;;;;6.05;3.97;;;20.40;72.80;;;;;;5077469;28;20471;-72
2021/07/03 09:50:07;;;;;;;5.57;4.47;;;20.40;72.80;;;;;;5077425;28;20040;-72
2021/07/03 09:52:35;;;;;;;5.85;4.20;;;20.40;72.80;;;;;;5077578;28;20139;-73
2021/07/03 09:55:03;;;;;;;6.50;4.53;;;20.40;72.80;;;;;;5089349;28;20055;-73
2021/07/03 09:57:29;;;;;;;6.78;4.70;;;20.40;72.80;;;;;;5097529;28;20052;-73
2021/07/03 09:59:55;;;;;;;6.35;4.40;;;20.40;72.80;;;;;;5097642;28;20048;-73
2021/07/03 10:02:21;;;;;;;5.35;4.40;;;20.40;72.80;;;;;;5088600;28;20094;-73
2021/07/03 10:04:47;;;;;;;4.82;4.25;;;20.40;72.80;;;;;;5077256;28;20063;-73
2021/07/03 10:07:25;;;;;;;5.38;4.13;;;20.40;72.80;;;;;;5077237;28;20048;-72
2021/07/03 10:10:18;;;;;;;5.95;4.45;;;20.40;72.80;;;;;;5076979;28;20470;-74
2021/07/03 10:12:49;;;;;;;4.50;3.63;;;20.40;72.80;;;;;;5081983;28;20044;-73
2021/07/03 10:15:29;;;;;;;6.55;4.15;;;20.40;72.80;;;;;;5096823;28;20043;-73
2021/07/03 10:18:19;;;;;;;5.63;4.55;;;20.40;72.80;;;;;;5097020;28;20063;-73
2021/07/03 10:20:45;;;;;;;6.07;4.10;;;20.40;72.80;;;;;;5097099;28;20040;-72
2021/07/03 10:23:12;;;;;;;5.38;3.95;;;20.40;72.90;;;;;;5096996;28;20051;-73
2021/07/03 10:25:40;;;;;;;8.02;4.90;;;20.40;72.90;;;;;;5093853;28;20051;-73
2021/07/03 10:28:12;;;;;;;5.68;4.38;;;20.50;72.90;;;;;;5076520;28;20432;-73
2021/07/03 10:30:43;;;;;;;5.97;4.55;;;20.50;72.90;;;;;;5076627;28;20106;-73
2021/07/03 10:33:17;;;;;;;6.60;4.25;;;20.50;72.90;;;;;;5096130;28;20044;-72
2021/07/03 10:35:46;;;;;;;5.25;4.13;;;20.50;72.90;;;;;;5086667;28;20056;-73
2021/07/03 10:38:15;;;;;;;5.95;4.78;;;20.50;73.00;;;;;;5076508;28;20056;-72
2021/07/03 10:40:41;;;;;;;5.15;4.18;;;20.50;72.90;;;;;;5089010;28;20050;-73
2021/07/03 10:43:09;;;;;;;4.97;4.28;;;20.40;72.90;;;;;;5076855;28;20048;-73
2021/07/03 10:45:47;;;;;;;5.25;4.22;;;20.50;72.90;;;;;;5076345;28;20068;-73
2021/07/03 10:48:32;;;;;;;5.97;4.47;;;20.50;73.00;;;;;;5076829;28;20068;-73
2021/07/03 10:51:10;;;;;;;6.03;4.07;;;20.50;72.90;;;;;;5086593;28;20060;-73
2021/07/03 10:53:36;;;;;;;5.20;4.18;;;20.50;72.90;;;;;;5096576;28;20119;-73
2021/07/03 10:56:14;;;;;;;7.72;5.03;;;20.50;72.90;;;;;;5084840;28;20119;-73
2021/07/03 10:58:42;;;;;;;5.95;4.18;;;20.50;72.90;;;;;;5075812;28;20048;-73
2021/07/03 11:01:13;;;;;;;6.15;4.07;;;20.50;73.00;;;;;;5082377;28;20058;-73
2021/07/03 11:03:47;;;;;;;4.85;3.88;;;20.50;72.90;;;;;;5096153;28;20056;-73
2021/07/03 11:06:16;;;;;;;4.82;4.07;;;20.50;73.00;;;;;;5096225;28;20064;-73
2021/07/03 11:08:43;;;;;;;4.95;4.10;;;20.50;73.00;;;;;;5096241;28;20052;-73
2021/07/03 11:11:11;;;;;;;5.93;4.70;;;20.50;73.00;;;;;;5095786;28;20040;-73
2021/07/03 11:13:37;;;;;;;4.72;4.25;;;20.50;73.00;;;;;;5095795;28;20320;-72
2021/07/03 11:16:07;;;;;;;5.20;4.45;;;20.50;73.00;;;;;;5095964;28;20174;-73
2021/07/03 11:18:41;;;;;;;4.80;4.30;;;20.50;72.90;;;;;;5095787;28;20410;-72
2021/07/03 11:21:12;;;;;;;7.40;4.22;;;20.50;73.00;;;;;;5096536;28;20048;-72
2021/07/03 11:23:39;;;;;;;5.13;4.47;;;20.50;73.00;;;;;;5095945;28;20044;-73
2021/07/03 11:26:16;;;;;;;4.60;3.72;;;20.50;73.00;;;;;;5079042;28;20111;-73
2021/07/03 11:28:48;;;;;;;5.82;4.65;;;20.50;73.00;;;;;;5075701;28;20048;-73
2021/07/03 11:31:14;;;;;;;4.88;4.22;;;20.50;73.00;;;;;;5075638;28;20048;-73
2021/07/03 11:33:41;;;;;;;5.57;4.50;;;20.50;73.00;;;;;;5075641;28;20041;-73
2021/07/03 11:36:07;;;;;;;5.82;4.53;;;20.50;73.00;;;;;;5080625;28;20062;-73
2021/07/03 11:38:34;;;;;;;6.18;4.38;;;20.60;73.00;;;;;;5095425;28;20071;-73
2021/07/03 11:41:03;;;;;;;5.38;4.20;;;20.50;72.90;;;;;;5095944;28;20044;-73
2021/07/03 11:43:31;;;;;;;4.93;4.28;;;20.60;73.00;;;;;;5095923;28;20051;-73
2021/07/03 11:45:58;;;;;;;4.53;4.03;;;20.50;73.00;;;;;;5095755;28;20123;-73
2021/07/03 11:48:27;;;;;;;5.28;3.67;;;20.60;73.00;;;;;;5093375;28;20051;-74
2021/07/03 11:50:59;;;;;;;4.55;4.10;;;20.60;73.00;;;;;;5095430;28;20499;-74
2021/07/03 11:53:31;;;;;;;5.10;4.00;;;20.60;73.10;;;;;;5095105;28;20040;-73
2021/07/03 11:55:59;;;;;;;6.45;4.03;;;20.50;73.00;;;;;;5094333;28;20052;-73
2021/07/03 11:58:28;;;;;;;5.68;3.92;;;20.60;73.10;;;;;;5095473;28;20118;-73
2021/07/03 12:00:56;;;;;;;4.50;4.07;;;20.60;73.70;;;;;;5091875;28;20055;-73
2021/07/03 12:03:33;;;;;;;5.05;4.35;;;20.60;73.10;;;;;;5075207;28;20110;-74
2021/07/03 12:06:03;;;;;;;4.97;4.00;;;20.60;73.10;;;;;;5074915;28;20049;-73
2021/07/03 12:08:33;;;;;;;5.60;4.55;;;20.60;73.10;;;;;;5075053;28;20049;-72
2021/07/03 12:11:01;;;;;;;5.50;4.03;;;20.60;73.10;;;;;;5084866;28;20414;-72
2021/07/03 12:13:30;;;;;;;6.22;4.40;;;20.60;73.10;;;;;;5095160;28;20113;-73
2021/07/03 12:15:58;;;;;;;4.72;4.05;;;20.60;73.10;;;;;;5095652;28;20044;-73
2021/07/03 12:18:32;;;;;;;4.75;4.22;;;20.60;73.10;;;;;;5094839;28;20044;-73
2021/07/03 12:21:09;;;;;;;4.45;4.05;;;20.60;73.10;;;;;;5095129;28;20066;-72
2021/07/03 12:24:06;;;;;;;5.78;4.53;;;20.60;73.10;;;;;;5095184;28;20040;-73
2021/07/03 12:26:35;;;;;;;4.95;4.10;;;20.60;73.00;;;;;;5075313;28;20075;-73
2021/07/03 12:29:02;;;;;;;4.70;4.15;;;20.60;73.10;;;;;;5074810;28;20080;-73
2021/07/03 12:31:39;;;;;;;5.00;4.30;;;20.60;73.10;;;;;;5077711;28;20048;-73
2021/07/03 12:34:08;;;;;;;4.35;3.95;;;20.60;73.10;;;;;;5082749;28;20044;-73
2021/07/03 12:36:36;;;;;;;5.60;4.38;;;20.60;73.10;;;;;;5075461;28;20068;-73
2021/07/03 12:39:08;;;;;;;4.47;4.07;;;20.60;73.00;;;;;;5075497;28;20047;-73
2021/07/03 12:41:34;;;;;;;4.85;4.30;;;20.60;73.00;;;;;;5088103;28;20123;-73
2021/07/03 12:44:00;;;;;;;5.47;4.45;;;20.60;73.00;;;;;;5095010;28;20051;-73
2021/07/03 12:46:31;;;;;;;6.28;4.68;;;20.60;73.00;;;;;;5094671;28;20048;-73
2021/07/03 12:48:57;;;;;;;4.13;3.67;;;20.60;73.00;;;;;;5095320;28;20070;-73
2021/07/03 12:51:28;;;;;;;4.53;3.72;;;20.60;73.00;;;;;;5097279;28;20048;-72